createdAt,value
2023-03-20T00:47:48.541Z,96848.22
2023-03-20T00:50:18.508Z,96845.34
2023-03-20T00:52:46.064Z,96844.50
2023-03-20T00:55:13.569Z,96844.66
2023-03-20T00:57:45.546Z,96851.56
2023-03-20T01:00:27.432Z,96851.69
2023-03-20T01:02:58.945Z,96845.13
2023-03-20T01:05:29.007Z,96847.06
2023-03-20T01:07:57.004Z,96841.13
2023-03-20T01:10:33.983Z,96842.22
2023-03-20T01:13:02.752Z,96842.22
2023-03-20T01:15:33.838Z,96838.44
2023-03-20T01:18:02.969Z,96849.34
2023-03-20T01:20:31.688Z,96845.63
2023-03-20T01:22:59.226Z,96848.97
2023-03-20T01:25:27.241Z,96847.06
2023-03-20T01:27:57.958Z,96862.59
2023-03-20T01:30:28.695Z,96857.19
2023-03-20T01:32:57.187Z,96864.03
2023-03-20T01:35:28.963Z,96859.78
2023-03-20T01:37:57.557Z,96860.16
2023-03-20T01:40:34.030Z,96861.75
2023-03-20T01:43:03.258Z,96864.50
2023-03-20T01:45:36.677Z,96859.09
2023-03-20T01:48:15.876Z,96860.16
2023-03-20T01:50:44.771Z,96857.91
2023-03-20T01:53:16.831Z,96862.13
2023-03-20T01:55:47.408Z,96862.47
2023-03-20T01:58:20.684Z,96869.03
2023-03-20T02:00:49.886Z,96869.56
2023-03-20T02:03:18.928Z,96869.19
2023-03-20T02:05:48.753Z,96876.50
2023-03-20T02:08:26.645Z,96878.69
2023-03-20T02:10:55.688Z,96878.63
2023-03-20T02:13:25.408Z,96874.69
2023-03-20T02:16:03.724Z,96877.25
2023-03-20T02:18:32.264Z,96887.94
2023-03-20T02:21:49.966Z,96879.16
2023-03-20T02:25:02.213Z,96886.97
2023-03-20T02:27:35.863Z,96886.97
2023-03-20T02:30:39.047Z,96889.91
2023-03-20T02:33:46.486Z,96899.03
2023-03-20T02:36:49.454Z,96905.41
2023-03-20T02:39:43.544Z,96904.41
2023-03-20T02:42:19.735Z,96905.25
2023-03-20T02:44:54.550Z,96906.75
2023-03-20T02:47:27.557Z,96905.13
2023-03-20T02:50:03.150Z,96909.47
2023-03-20T02:52:40.571Z,96902.09
2023-03-20T02:55:17.808Z,96910.91
2023-03-20T02:57:53.021Z,96895.41
2023-03-20T03:00:28.871Z,96902.09
2023-03-20T03:03:06.475Z,96903.72
2023-03-20T03:05:39.529Z,96910.75
2023-03-20T03:08:10.776Z,96914.03
2023-03-20T03:10:42.863Z,96909.53
2023-03-20T03:13:16.197Z,96914.03
2023-03-20T03:15:47.855Z,96915.06
2023-03-20T03:18:20.336Z,96912.88
2023-03-20T03:20:51.172Z,96912.72
2023-03-20T03:23:24.331Z,96916.50
2023-03-20T03:25:56.303Z,96917.03
2023-03-20T03:28:30.225Z,96918.78
2023-03-20T03:30:59.613Z,96917.56
2023-03-20T03:33:31.190Z,96919.63
2023-03-20T03:36:06.453Z,96916.03
2023-03-20T03:38:44.540Z,96918.34
2023-03-20T03:41:22.606Z,96917.88
2023-03-20T03:43:56.825Z,96921.66
2023-03-20T03:46:30.667Z,96920.22
2023-03-20T03:48:59.632Z,96919.03
2023-03-20T03:51:30.858Z,96916.91
2023-03-20T03:54:03.247Z,96914.19
2023-03-20T03:56:35.374Z,96916.81
2023-03-20T03:59:07.616Z,96923.00
2023-03-20T04:01:37.324Z,96923.63
2023-03-20T04:04:09.550Z,96927.69
2023-03-20T04:06:37.158Z,96926.88
2023-03-20T04:09:04.903Z,96925.72
2023-03-20T04:11:35.669Z,96922.66
2023-03-20T04:14:03.163Z,96920.38
2023-03-20T04:16:30.954Z,96918.78
2023-03-20T04:18:58.868Z,96921.38
2023-03-20T04:21:26.493Z,96925.88
2023-03-20T04:23:54.057Z,96921.94
2023-03-20T04:26:22.170Z,96931.03
2023-03-20T04:28:51.043Z,96931.25
2023-03-20T04:31:19.222Z,96934.69
2023-03-20T04:33:47.400Z,96940.28
2023-03-20T04:36:15.545Z,96934.44
2023-03-20T04:38:43.083Z,96928.56
2023-03-20T04:41:10.656Z,96932.94
2023-03-20T04:43:38.146Z,96927.63
2023-03-20T04:46:07.526Z,96938.41
2023-03-20T04:48:35.456Z,96936.59
2023-03-20T04:51:02.953Z,96938.06
2023-03-20T04:53:30.463Z,96945.06
2023-03-20T04:55:59.495Z,96938.06
2023-03-20T04:58:28.901Z,96946.34
2023-03-20T05:00:56.429Z,96953.66
2023-03-20T05:03:25.386Z,96950.25
2023-03-20T05:05:52.898Z,96948.78
2023-03-20T05:08:20.591Z,96945.81
2023-03-20T05:10:48.069Z,96954.28
2023-03-20T05:13:15.676Z,96952.03
2023-03-20T05:15:44.028Z,96959.41
2023-03-20T05:18:11.780Z,96945.72
2023-03-20T05:20:40.977Z,96955.34
2023-03-20T05:23:08.495Z,96956.16
2023-03-20T05:25:36.429Z,96947.16
2023-03-20T05:28:04.264Z,96952.22
2023-03-20T05:30:31.755Z,96951.41
2023-03-20T05:32:59.265Z,96957.91
2023-03-20T05:35:26.968Z,96955.94
2023-03-20T05:37:55.809Z,96958.72
2023-03-20T05:40:25.405Z,96959.34
2023-03-20T05:42:53.524Z,96964.72
2023-03-20T05:45:21.388Z,96964.63
2023-03-20T05:47:48.996Z,96970.84
2023-03-20T05:50:17.024Z,96976.03
2023-03-20T05:52:47.236Z,96979.78
2023-03-20T05:55:16.665Z,96980.16
2023-03-20T05:57:44.218Z,96986.53
2023-03-20T06:00:12.711Z,96986.97
2023-03-20T06:02:40.246Z,96989.53
2023-03-20T06:05:08.141Z,96997.03
2023-03-20T06:07:35.686Z,97001.25
2023-03-20T06:10:03.200Z,97003.88
2023-03-20T06:12:32.045Z,97005.84
2023-03-20T06:14:59.612Z,97004.75
2023-03-20T06:17:27.163Z,97000.00
2023-03-20T06:19:54.702Z,96996.28
2023-03-20T06:22:22.273Z,97000.34
2023-03-20T06:24:49.902Z,97003.22
2023-03-20T06:27:17.489Z,97007.47
2023-03-20T06:29:46.294Z,97004.50
2023-03-20T06:32:14.715Z,97012.06
2023-03-20T06:34:42.319Z,97012.38
2023-03-20T06:37:09.966Z,97017.94
2023-03-20T06:39:37.810Z,97018.28
2023-03-20T06:42:05.357Z,97015.84
2023-03-20T06:44:32.904Z,97023.69
2023-03-20T06:47:02.575Z,97028.25
2023-03-20T06:49:30.726Z,97019.94
2023-03-20T06:51:59.498Z,97021.06
2023-03-20T06:54:27.541Z,97021.72
2023-03-20T06:56:56.829Z,97018.59
2023-03-20T06:59:24.883Z,97018.06
2023-03-20T07:01:52.727Z,97015.63
2023-03-20T07:04:22.355Z,97023.97
2023-03-20T07:06:50.011Z,97022.50
2023-03-20T07:09:22.352Z,97013.97
2023-03-20T07:11:50.864Z,97010.66
2023-03-20T07:14:18.627Z,97001.16
2023-03-20T07:16:46.303Z,97013.69
2023-03-20T07:19:14.126Z,97013.69
2023-03-20T07:21:43.408Z,97025.59
2023-03-20T07:24:10.986Z,97025.88
2023-03-20T07:26:41.229Z,97027.16
2023-03-20T07:29:08.832Z,97017.19
2023-03-20T07:31:36.498Z,97017.97
2023-03-20T07:34:04.254Z,97015.53
2023-03-20T07:36:31.824Z,97014.91
2023-03-20T07:39:00.749Z,97019.84
2023-03-20T07:41:28.340Z,97023.91
2023-03-20T07:43:56.012Z,97010.78
2023-03-20T07:46:23.669Z,97010.91
2023-03-20T07:48:51.472Z,97010.00
2023-03-20T07:51:19.125Z,97011.94
2023-03-20T07:53:46.696Z,97019.22
2023-03-20T07:56:15.611Z,97021.50
2023-03-20T07:58:43.449Z,97026.19
2023-03-20T08:01:11.462Z,97021.25
2023-03-20T08:03:40.448Z,97024.22
2023-03-20T08:06:09.703Z,97036.53
2023-03-20T08:08:38.126Z,97039.84
2023-03-20T08:11:05.971Z,97029.13
2023-03-20T08:13:34.968Z,97029.56
2023-03-20T08:16:02.594Z,97024.28
2023-03-20T08:18:32.979Z,97015.91
2023-03-20T08:21:00.552Z,97015.38
2023-03-20T08:23:28.581Z,97015.16
2023-03-20T08:25:56.414Z,97016.53
2023-03-20T08:28:36.476Z,97020.03
2023-03-20T08:31:14.025Z,97015.06
2023-03-20T08:33:41.635Z,97009.50
2023-03-20T08:36:10.167Z,97016.34
2023-03-20T08:38:39.337Z,97022.84
2023-03-20T08:41:07.829Z,97021.78
2023-03-20T08:43:36.344Z,97027.31
2023-03-20T08:46:04.143Z,97026.94
2023-03-20T08:48:33.241Z,97026.22
2023-03-20T08:51:01.380Z,97028.84
2023-03-20T08:53:29.196Z,97027.19
2023-03-20T08:55:57.566Z,97034.06
2023-03-20T08:58:25.152Z,97027.56
2023-03-20T09:00:52.735Z,97030.81
2023-03-20T09:03:22.117Z,97028.13
2023-03-20T09:05:52.432Z,97040.75
2023-03-20T09:08:20.652Z,97043.63
2023-03-20T09:10:52.134Z,97033.97
2023-03-20T09:13:27.514Z,97033.22
2023-03-20T09:15:57.348Z,97037.38
2023-03-20T09:18:26.533Z,97037.97
2023-03-20T09:20:56.551Z,97044.44
2023-03-20T09:23:24.478Z,97047.03
2023-03-20T09:25:52.096Z,97046.53
2023-03-20T09:28:19.856Z,97044.16
2023-03-20T09:30:47.502Z,97034.53
2023-03-20T09:33:16.072Z,97039.06
2023-03-20T09:35:44.097Z,97033.50
2023-03-20T09:38:14.186Z,97042.16
2023-03-20T09:40:52.420Z,97047.41
2023-03-20T09:43:29.942Z,97047.75
2023-03-20T09:46:06.841Z,97037.72
2023-03-20T09:48:41.966Z,97041.34
2023-03-20T09:51:19.858Z,97043.53
2023-03-20T09:54:03.638Z,97029.19
2023-03-20T09:56:32.441Z,97026.13
2023-03-20T09:59:02.396Z,97032.56
2023-03-20T10:01:39.571Z,97026.38
2023-03-20T10:04:10.641Z,97021.66
2023-03-20T10:06:38.858Z,97014.00
2023-03-20T10:09:16.714Z,97018.34
2023-03-20T10:12:01.689Z,97025.00
2023-03-20T10:14:40.729Z,97015.13
2023-03-20T10:17:22.136Z,97023.03
2023-03-20T10:19:55.036Z,97025.38
2023-03-20T10:22:25.902Z,97025.47
2023-03-20T10:24:59.766Z,97021.84
2023-03-20T10:27:34.131Z,97024.41
2023-03-20T10:30:19.791Z,97014.72
2023-03-20T10:32:55.606Z,97019.19
2023-03-20T10:35:41.257Z,97015.59
2023-03-20T10:38:25.870Z,97026.94
2023-03-20T10:40:58.114Z,97006.84
2023-03-20T10:43:28.024Z,97011.94
2023-03-20T10:46:01.783Z,96999.16
2023-03-20T10:48:37.582Z,97006.53
2023-03-20T10:51:06.765Z,96999.47
2023-03-20T10:53:38.931Z,97003.56
2023-03-20T10:56:15.080Z,97002.53
2023-03-20T10:58:48.453Z,96999.13
2023-03-20T11:01:16.203Z,96997.53
2023-03-20T11:03:44.112Z,97008.88
2023-03-20T11:06:20.171Z,97015.63
2023-03-20T11:08:52.085Z,97008.06
2023-03-20T11:11:26.801Z,97015.13
2023-03-20T11:13:56.301Z,97010.38
2023-03-20T11:16:26.265Z,97017.94
2023-03-20T11:18:55.099Z,97017.78
2023-03-20T11:21:26.053Z,97020.88
2023-03-20T11:23:54.430Z,97007.75
2023-03-20T11:26:41.848Z,97008.59
2023-03-20T11:29:21.649Z,97007.34
2023-03-20T11:31:49.369Z,97005.94
2023-03-20T11:34:26.708Z,97008.97
2023-03-20T11:37:09.717Z,97002.09
2023-03-20T11:39:40.127Z,96998.44
2023-03-20T11:42:23.857Z,97010.38
2023-03-20T11:44:58.853Z,97006.72
2023-03-20T11:47:28.700Z,97017.00
2023-03-20T11:49:58.614Z,97008.72
2023-03-20T11:52:28.951Z,97012.53
2023-03-20T11:54:59.069Z,97013.75
2023-03-20T11:57:33.076Z,97009.94
2023-03-20T12:00:04.142Z,97008.94
2023-03-20T12:02:32.005Z,97013.34
2023-03-20T12:05:01.258Z,97009.66
2023-03-20T12:07:32.001Z,97009.22
2023-03-20T12:10:03.772Z,97005.06
2023-03-20T12:12:42.089Z,97007.00
2023-03-20T12:15:18.388Z,96998.94
2023-03-20T12:17:51.836Z,97003.56
2023-03-20T12:20:30.897Z,97000.47
2023-03-20T12:23:07.597Z,96998.47
2023-03-20T12:25:39.768Z,96995.69
2023-03-20T12:28:16.447Z,96986.84
2023-03-20T12:30:55.894Z,96991.75
2023-03-20T12:33:36.291Z,96989.78
2023-03-20T12:36:06.363Z,96984.91
2023-03-20T12:38:34.915Z,96987.34
2023-03-20T12:41:12.726Z,96989.00
2023-03-20T12:44:00.290Z,96989.19
2023-03-20T12:46:36.584Z,96978.66
2023-03-20T12:49:13.645Z,96973.38
2023-03-20T12:51:52.959Z,96974.59
2023-03-20T12:54:34.968Z,96973.38
2023-03-20T12:57:11.637Z,96983.28
2023-03-20T12:59:52.385Z,96979.44
2023-03-20T13:02:32.702Z,96982.44
2023-03-20T13:05:10.273Z,96972.28
2023-03-20T13:07:53.727Z,96975.53
2023-03-20T13:10:23.103Z,96971.88
2023-03-20T13:13:01.660Z,96971.50
2023-03-20T13:15:39.795Z,96977.97
2023-03-20T13:18:18.592Z,96972.28
2023-03-20T13:20:51.307Z,96971.66
2023-03-20T13:23:24.524Z,96969.03
2023-03-20T13:26:14.774Z,96961.94
2023-03-20T13:28:53.306Z,96966.94
2023-03-20T13:31:59.219Z,96960.03
2023-03-20T13:34:36.309Z,96964.44
2023-03-20T13:37:22.856Z,96958.16
2023-03-20T13:40:02.016Z,96959.16
2023-03-20T13:42:34.850Z,96966.28
2023-03-20T13:45:07.116Z,96948.41
2023-03-20T13:47:37.722Z,96953.47
2023-03-20T13:50:19.271Z,96947.22
2023-03-20T13:52:53.055Z,96944.56
2023-03-20T13:55:28.559Z,96947.19
2023-03-20T13:58:11.871Z,96941.81
2023-03-20T14:00:47.545Z,96945.63
2023-03-20T14:03:28.436Z,96941.59
2023-03-20T14:05:56.591Z,96936.78
2023-03-20T14:08:36.791Z,96930.75
2023-03-20T14:11:32.352Z,96943.66
2023-03-20T14:14:05.518Z,96933.78
2023-03-20T14:16:33.171Z,96933.16
2023-03-20T14:19:12.904Z,96931.53
2023-03-20T14:21:41.212Z,96938.13
2023-03-20T14:24:15.071Z,96921.16
2023-03-20T14:26:43.337Z,96929.84
2023-03-20T14:29:34.056Z,96932.13
2023-03-20T14:32:24.381Z,96930.34
2023-03-20T14:34:54.856Z,96929.97
2023-03-20T14:37:37.877Z,96921.53
2023-03-20T14:40:16.343Z,96923.16
2023-03-20T14:42:55.997Z,96917.94
2023-03-20T14:45:38.237Z,96918.56
2023-03-20T14:48:12.718Z,96919.56
2023-03-20T14:51:03.026Z,96921.97
2023-03-20T14:53:32.900Z,96916.34
2023-03-20T14:56:08.390Z,96909.47
2023-03-20T14:58:50.740Z,96906.66
2023-03-20T15:01:26.136Z,96906.28
2023-03-20T15:03:57.480Z,96905.84
2023-03-20T15:06:28.071Z,96909.09
2023-03-20T15:08:59.400Z,96903.44
2023-03-20T15:11:27.465Z,96894.94
2023-03-20T15:13:56.602Z,96898.59
2023-03-20T15:16:29.740Z,96893.72
2023-03-20T15:18:58.060Z,96889.69
2023-03-20T15:21:34.151Z,96888.06
2023-03-20T15:24:02.565Z,96896.16
2023-03-20T15:26:32.952Z,96895.69
2023-03-20T15:29:03.503Z,96881.75
2023-03-20T15:31:33.171Z,96894.47
2023-03-20T15:34:02.868Z,96883.16
2023-03-20T15:36:36.939Z,96883.75
2023-03-20T15:39:08.258Z,96882.34
2023-03-20T15:41:39.142Z,96883.53
2023-03-20T15:44:19.982Z,96883.28
2023-03-20T15:46:56.953Z,96890.38
2023-03-20T15:49:25.526Z,96892.19
2023-03-20T15:51:58.227Z,96890.56
2023-03-20T15:54:26.094Z,96888.16
2023-03-20T15:56:57.481Z,96891.56
2023-03-20T15:59:29.483Z,96887.94
2023-03-20T16:02:00.439Z,96894.59
2023-03-20T16:04:29.064Z,96888.72
2023-03-20T16:06:59.426Z,96888.28
2023-03-20T16:09:28.990Z,96888.69
2023-03-20T16:11:59.548Z,96890.72
2023-03-20T16:14:30.074Z,96885.22
2023-03-20T16:17:00.365Z,96885.41
2023-03-20T16:19:29.887Z,96891.22
2023-03-20T16:22:02.034Z,96885.97
2023-03-20T16:24:31.749Z,96887.78
2023-03-20T16:26:59.416Z,96888.56
2023-03-20T16:29:29.004Z,96889.53
2023-03-20T16:32:00.312Z,96898.16
2023-03-20T16:34:33.052Z,96893.91
2023-03-20T16:37:07.223Z,96895.91
2023-03-20T16:39:34.826Z,96887.81
2023-03-20T16:42:21.449Z,96888.16
2023-03-20T16:44:54.834Z,96890.34
2023-03-20T16:47:24.945Z,96898.75
2023-03-20T16:50:10.633Z,96893.69
2023-03-20T16:52:42.457Z,96888.09
2023-03-20T16:55:17.052Z,96897.22
2023-03-20T16:57:48.589Z,96896.19
2023-03-20T17:00:25.645Z,96885.66
2023-03-20T17:03:00.795Z,96887.81
2023-03-20T17:05:43.381Z,96899.50
2023-03-20T17:08:15.992Z,96897.84
2023-03-20T17:10:49.901Z,96898.22
2023-03-20T17:13:17.414Z,96894.56
2023-03-20T17:15:45.718Z,96900.72
2023-03-20T17:18:14.406Z,96897.31
2023-03-20T17:20:42.237Z,96904.53
2023-03-20T17:23:16.131Z,96904.50
2023-03-20T17:25:44.168Z,96903.69
2023-03-20T17:28:19.965Z,96904.88
2023-03-20T17:30:48.832Z,96900.38
2023-03-20T17:33:18.960Z,96895.91
2023-03-20T17:35:47.725Z,96902.75
2023-03-20T17:38:22.485Z,96900.94
2023-03-20T17:40:51.228Z,96899.13
2023-03-20T17:43:19.992Z,96894.75
2023-03-20T17:45:48.393Z,96897.38
2023-03-20T17:48:18.492Z,96896.75
2023-03-20T17:50:46.621Z,96900.81
2023-03-20T17:53:17.076Z,96906.88
2023-03-20T17:55:46.094Z,96903.25
2023-03-20T17:58:18.480Z,96910.13
2023-03-20T18:00:46.271Z,96903.63
2023-03-20T18:03:15.258Z,96915.47
2023-03-20T18:05:43.140Z,96916.44
2023-03-20T18:08:14.943Z,96924.06
2023-03-20T18:10:43.482Z,96924.44
2023-03-20T18:13:12.361Z,96919.22
2023-03-20T18:15:40.669Z,96930.31
2023-03-20T18:18:09.450Z,96931.28
2023-03-20T18:20:40.959Z,96932.09
2023-03-20T18:23:09.084Z,96932.53
2023-03-20T18:25:37.034Z,96932.16
2023-03-20T18:28:07.931Z,96929.53
2023-03-20T18:30:39.347Z,96933.00
2023-03-20T18:33:07.203Z,96934.16
2023-03-20T18:35:35.745Z,96940.56
2023-03-20T18:38:04.033Z,96941.41
2023-03-20T18:40:33.428Z,96929.75
2023-03-20T18:43:01.315Z,96928.56
2023-03-20T18:45:30.725Z,96937.41
2023-03-20T18:48:03.653Z,96933.78
2023-03-20T18:50:37.504Z,96932.53
2023-03-20T18:53:11.655Z,96939.78
2023-03-20T18:55:47.727Z,96935.72
2023-03-20T18:58:25.005Z,96948.00
2023-03-20T19:00:55.346Z,96940.16
2023-03-20T19:24:01.255Z,96946.47
2023-03-20T20:16:56.253Z,96922.09
2023-03-20T20:31:29.710Z,96934.25
2023-03-20T20:35:14.833Z,96936.69
2023-03-20T20:44:41.121Z,96921.91
2023-03-20T20:47:21.546Z,96923.38
2023-03-20T20:49:51.925Z,96926.31
2023-03-20T20:52:21.270Z,96929.13
2023-03-20T20:54:50.988Z,96928.94
2023-03-20T20:57:20.766Z,96926.50
2023-03-20T20:59:59.566Z,96924.50
2023-03-20T21:02:29.591Z,96924.34
2023-03-20T21:05:00.716Z,96930.19
2023-03-20T21:07:36.726Z,96921.56
2023-03-20T21:10:06.726Z,96928.75
2023-03-20T21:12:55.980Z,96928.31
2023-03-20T21:15:27.822Z,96933.28
2023-03-20T21:18:01.377Z,96926.41
2023-03-20T21:20:33.587Z,96929.03
2023-03-20T21:23:03.765Z,96925.44
2023-03-20T21:25:46.345Z,96930.50
2023-03-20T21:28:18.985Z,96928.06
2023-03-20T21:31:12.401Z,96935.09
2023-03-20T21:33:39.213Z,96938.13
2023-03-20T21:36:10.730Z,96938.34
2023-03-20T21:39:06.779Z,96935.72
2023-03-20T21:41:29.222Z,96932.91
2023-03-20T21:44:01.244Z,96934.25
2023-03-20T21:53:10.523Z,96936.66
2023-03-20T22:04:19.120Z,96938.56
2023-03-20T22:07:23.905Z,96937.25
2023-03-20T22:13:01.391Z,96942.47
2023-03-20T22:15:34.082Z,96936.25
2023-03-20T22:21:36.518Z,96933.00
2023-03-20T22:24:14.852Z,96935.44
2023-03-20T22:30:02.619Z,96935.69
2023-03-20T22:32:40.869Z,96935.06
2023-03-20T22:38:21.802Z,96941.19
2023-03-20T22:41:18.218Z,96931.53
2023-03-20T22:46:25.564Z,96930.81
2023-03-20T22:48:54.462Z,96934.06
2023-03-20T22:51:32.527Z,96931.09
2023-03-20T22:54:08.647Z,96925.88
2023-03-20T22:59:20.346Z,96918.84
2023-03-20T23:04:31.131Z,96920.81
2023-03-20T23:07:02.004Z,96913.34
2023-03-20T23:09:33.794Z,96916.13
2023-03-20T23:12:03.849Z,96909.09
2023-03-20T23:14:45.529Z,96906.31
2023-03-20T23:17:15.224Z,96906.94
2023-03-20T23:20:05.313Z,96914.63
2023-03-20T23:22:45.246Z,96909.91
2023-03-20T23:25:23.596Z,96900.19
2023-03-20T23:27:56.240Z,96908.66
2023-03-20T23:30:43.518Z,96901.81
2023-03-20T23:33:13.067Z,96909.66
2023-03-20T23:35:40.761Z,96908.03
2023-03-20T23:38:08.291Z,96898.31
2023-03-20T23:40:36.313Z,96905.22
2023-03-20T23:43:04.306Z,96901.16
2023-03-20T23:45:31.892Z,96895.41
2023-03-20T23:47:59.458Z,96897.66
2023-03-20T23:50:36.904Z,96903.78
2023-03-20T23:53:20.037Z,96900.28
2023-03-20T23:55:50.115Z,96897.94
2023-03-20T23:58:17.842Z,96893.44
